WetterOnline ( https://www.wetteronline.de )

Wetter aktuell Hamburg

Aktuelles Wetter: Hamburg/Fuhlsbüttel (15m)

6-stündlich | Neueste Meldungen
Ortszeit Temperatur Wetter
Mo, 08.08. 2:00 10.1° C leicht bewölkt
So, 07.08. 20:00 19.9° C fast wolkenlos
So, 07.08. 14:00 20.5° C wolkig
So, 07.08. 8:00 13.3° C wolkenlos
So, 07.08. 2:00 10.1° C fast wolkenlos
Sa, 06.08. 20:00 18.4° C wolkenlos
Sa, 06.08. 14:00 20.4° C leicht bewölkt
Sa, 06.08. 8:00 13.9° C wolkig
Ortszeit Temperatur Wetter
Mo, 08.08. 3:00 11.0° C leicht bewölkt
Mo, 08.08. 2:30 11.1° C bewölkt
Mo, 08.08. 2:20 11.1° C bewölkt
Mo, 08.08. 2:10 11.4° C wolkig
Mo, 08.08. 2:00 10.1° C leicht bewölkt
Mo, 08.08. 1:50 10.1° C leicht bewölkt
Mo, 08.08. 1:30 11.3° C wolkenlos
Mo, 08.08. 1:00 12.2° C wolkenlos
Mo, 08.08. 0:30 12.7° C wolkenlos
Mo, 08.08. 0:00 13.1° C wolkenlos
So, 07.08. 23:30 14.0° C wolkenlos
So, 07.08. 23:00 14.6° C wolkenlos
Ortszeit Relative Feuchte Sichtweite
Mo, 08.08. 2:00 92% 27 km
So, 07.08. 20:00 51% 55 km
So, 07.08. 14:00 45% 60 km
So, 07.08. 8:00 80% 26 km
So, 07.08. 2:00 97% 10 km
Sa, 06.08. 20:00 52% 45 km
Sa, 06.08. 14:00 47% 50 km
Sa, 06.08. 8:00 79% 55 km
Ortszeit Relative Feuchte Sichtweite
Mo, 08.08. 3:00 95% 24 km
Mo, 08.08. 2:30 95% 24 km
Mo, 08.08. 2:20 95% -
Mo, 08.08. 2:10 95% -
Mo, 08.08. 2:00 92% 27 km
Mo, 08.08. 1:50 92% -
Mo, 08.08. 1:30 93% 27 km
Mo, 08.08. 1:00 92% 29 km
Mo, 08.08. 0:30 89% 35 km
Mo, 08.08. 0:00 87% 45 km
So, 07.08. 23:30 84% 45 km
So, 07.08. 23:00 80% 50 km
Ortszeit Niederschlagsmenge Niederschlagsart
Mo, 08.08. 2:00 0.0 l/m2 in 6 Std. -
So, 07.08. 20:00 0.0 l/m2 in 12 Std. -
So, 07.08. 14:00 0.0 l/m2 in 6 Std. -
So, 07.08. 8:00 0.0 l/m2 in 12 Std. -
So, 07.08. 2:00 0.0 l/m2 in 6 Std. -
Sa, 06.08. 20:00 0.1 l/m2 in 12 Std. -
Sa, 06.08. 14:00 0.1 l/m2 in 6 Std. Regen
Sa, 06.08. 8:00 0.0 l/m2 in 12 Std. -
Ortszeit Niederschlagsmenge Niederschlagsart
Mo, 08.08. 3:00 keine Meldung -
Mo, 08.08. 2:30 0.0 l/m2 in 1 Std. -
Mo, 08.08. 2:20 keine Meldung -
Mo, 08.08. 2:10 keine Meldung -
Mo, 08.08. 2:00 0.0 l/m2 in 1 Std. -
Mo, 08.08. 1:50 keine Meldung -
Mo, 08.08. 1:30 0.0 l/m2 in 1 Std. -
Mo, 08.08. 1:00 0.0 l/m2 in 1 Std. -
Mo, 08.08. 0:30 0.0 l/m2 in 1 Std. -
Mo, 08.08. 0:00 0.0 l/m2 in 1 Std. -
So, 07.08. 23:30 0.0 l/m2 in 1 Std. -
So, 07.08. 23:00 0.0 l/m2 in 1 Std. -
Ortszeit Stärke Spitze Richtung
km/h Bft. km/h Grad Sektor
Mo, 08.08. 2:00 4 1 14 340° N
So, 07.08. 20:00 14 3 29 320° NW
So, 07.08. 14:00 13 3 37 290° W
So, 07.08. 8:00 2 1 6 190° S
So, 07.08. 2:00 2 1 22 280° W
Sa, 06.08. 20:00 17 3 41 310° NW
Sa, 06.08. 14:00 22 4 47 280° W
Sa, 06.08. 8:00 7 2 15 250° W
Ortszeit Stärke Spitze Richtung
km/h Bft. km/h Grad Sektor
Mo, 08.08. 3:00 4 1 11 330° NW
Mo, 08.08. 2:30 7 2 11 320° NW
Mo, 08.08. 2:20 7 2 - 320° NW
Mo, 08.08. 2:10 2 1 - 330° NW
Mo, 08.08. 2:00 4 1 7 340° N
Mo, 08.08. 1:50 4 1 - 340° N
Mo, 08.08. 1:30 4 1 7 350° N
Mo, 08.08. 1:00 4 1 7 310° NW
Mo, 08.08. 0:30 2 1 4 300° NW
Mo, 08.08. 0:00 4 1 7 340° N
So, 07.08. 23:30 2 1 4 310° NW
So, 07.08. 23:00 4 1 11 340° N
Ortszeit Untergrenze Bedeckung Gattung
total tief tief mittel hoch
Mo, 08.08. 2:00 1800 m 3/8 3/8 - - -
So, 07.08. 20:00 4800 m 1/8 1/8 - - -
So, 07.08. 14:00 1500 m 5/8 5/8 - - -
So, 07.08. 8:00 - 0/8 0/8 - - -
So, 07.08. 2:00 9000 m 1/8 0/8 - - -
Sa, 06.08. 20:00 - 0/8 0/8 - - -
Sa, 06.08. 14:00 1500 m 2/8 2/8 - - -
Sa, 06.08. 8:00 1290 m 7/8 7/8 - - -
Ortszeit Bedeckungsgrad in Achtel und Wolkenuntergrenze
Mo, 08.08. 3:00 4(1800m)
Mo, 08.08. 2:30 7(1800m)
Mo, 08.08. 2:20 7(1800m)
Mo, 08.08. 2:10 5
Mo, 08.08. 2:00 3(1800m)
Mo, 08.08. 1:50 3(1800m)
Mo, 08.08. 1:30 keine Wolken
Mo, 08.08. 1:00 keine Wolken
Mo, 08.08. 0:30 keine Wolken
Mo, 08.08. 0:00 keine Wolken
So, 07.08. 23:30 keine Wolken
So, 07.08. 23:00 keine Wolken
Ortszeit Luftdruck NN (hPa) Tendenz (hPa in 3 Std.)
Mo, 08.08. 2:00 1025 + 0,3
So, 07.08. 20:00 1024 - 0,5
So, 07.08. 14:00 1025 - 1,1
So, 07.08. 8:00 1027 + 0,4
So, 07.08. 2:00 1027 - 0,3
Sa, 06.08. 20:00 1027 - 0,1
Sa, 06.08. 14:00 1027 + 0,1
Sa, 06.08. 8:00 1026 + 1,6
Ortszeit Luftdruck NN (hPa) Tendenz (hPa in 3 Std.)
Mo, 08.08. 3:00 1025 + 0,1
Mo, 08.08. 2:30 1025 + 0,4
Mo, 08.08. 2:20 1025 keine Meldung
Mo, 08.08. 2:10 1025 keine Meldung
Mo, 08.08. 2:00 1025 + 0,3
Mo, 08.08. 1:50 1025 keine Meldung
Mo, 08.08. 1:30 1025 + 0,4
Mo, 08.08. 1:00 1025 + 0,5
Mo, 08.08. 0:30 1025 + 0,5
Mo, 08.08. 0:00 1025 + 0,8
So, 07.08. 23:30 1024 + 0,8
So, 07.08. 23:00 1025 + 0,9
Ortszeit Schneehöhe (cm)
Mo, 08.08. 2:00 0
So, 07.08. 20:00 0
So, 07.08. 14:00 0
So, 07.08. 8:00 0
So, 07.08. 2:00 0
Sa, 06.08. 20:00 0
Sa, 06.08. 14:00 0
Sa, 06.08. 8:00 0
Ortszeit Schneehöhe (cm)
Mo, 08.08. 3:00 -
Mo, 08.08. 2:30 0
Mo, 08.08. 2:20 0
Mo, 08.08. 2:10 0
Mo, 08.08. 2:00 0
Mo, 08.08. 1:50 0
Mo, 08.08. 1:30 0
Mo, 08.08. 1:00 0
Mo, 08.08. 0:30 0
Mo, 08.08. 0:00 0
So, 07.08. 23:30 0
So, 07.08. 23:00 0
Link zu dieser Seite / Seite empfehlen

Das Wetter in ...